sensor_id;sensor_type;location;lat;lon;timestamp;temperature;humidity
2571;DHT22;1295;51.130;6.732;2022-08-11T00:01:14;28.10;85.80
2571;DHT22;1295;51.130;6.732;2022-08-11T00:03:42;28.10;85.90
2571;DHT22;1295;51.130;6.732;2022-08-11T00:06:07;28.10;86.10
2571;DHT22;1295;51.130;6.732;2022-08-11T00:08:32;28.10;86.10
2571;DHT22;1295;51.130;6.732;2022-08-11T00:11:01;28.00;86.90
2571;DHT22;1295;51.130;6.732;2022-08-11T00:13:34;28.10;86.30
2571;DHT22;1295;51.130;6.732;2022-08-11T00:15:58;28.00;86.30
2571;DHT22;1295;51.130;6.732;2022-08-11T00:18:24;28.00;86.40
2571;DHT22;1295;51.130;6.732;2022-08-11T00:20:50;28.00;86.50
2571;DHT22;1295;51.130;6.732;2022-08-11T00:23:17;28.00;86.60
2571;DHT22;1295;51.130;6.732;2022-08-11T00:25:46;27.90;86.50
2571;DHT22;1295;51.130;6.732;2022-08-11T00:28:29;27.90;86.70
2571;DHT22;1295;51.130;6.732;2022-08-11T00:30:54;27.90;86.70
2571;DHT22;1295;51.130;6.732;2022-08-11T00:33:20;27.90;86.80
2571;DHT22;1295;51.130;6.732;2022-08-11T00:35:45;27.90;86.90
2571;DHT22;1295;51.130;6.732;2022-08-11T00:38:11;27.80;87.00
2571;DHT22;1295;51.130;6.732;2022-08-11T00:41:14;27.80;86.90
2571;DHT22;1295;51.130;6.732;2022-08-11T00:43:21;27.80;87.00
2571;DHT22;1295;51.130;6.732;2022-08-11T00:45:49;27.80;87.10
2571;DHT22;1295;51.130;6.732;2022-08-11T00:48:14;27.70;87.10
2571;DHT22;1295;51.130;6.732;2022-08-11T00:50:50;27.80;87.20
2571;DHT22;1295;51.130;6.732;2022-08-11T00:56:17;27.70;87.40
2571;DHT22;1295;51.130;6.732;2022-08-11T00:58:58;27.70;87.40
2571;DHT22;1295;51.130;6.732;2022-08-11T01:01:20;27.70;87.60
2571;DHT22;1295;51.130;6.732;2022-08-11T01:04:10;27.60;87.60
2571;DHT22;1295;51.130;6.732;2022-08-11T01:06:45;27.60;87.70
2571;DHT22;1295;51.130;6.732;2022-08-11T01:10:06;27.60;87.70
2571;DHT22;1295;51.130;6.732;2022-08-11T01:12:34;27.60;87.70
2571;DHT22;1295;51.130;6.732;2022-08-11T01:17:55;27.60;88.00
2571;DHT22;1295;51.130;6.732;2022-08-11T01:21:35;27.50;88.00
2571;DHT22;1295;51.130;6.732;2022-08-11T01:25:47;27.50;88.10
2571;DHT22;1295;51.130;6.732;2022-08-11T01:31:08;27.40;88.30
2571;DHT22;1295;51.130;6.732;2022-08-11T01:39:03;27.40;88.60
2571;DHT22;1295;51.130;6.732;2022-08-11T01:44:12;27.30;88.70
2571;DHT22;1295;51.130;6.732;2022-08-11T01:46:46;27.30;88.70
2571;DHT22;1295;51.130;6.732;2022-08-11T01:49:20;27.30;88.90
2571;DHT22;1295;51.130;6.732;2022-08-11T01:52:02;27.20;88.90
2571;DHT22;1295;51.130;6.732;2022-08-11T01:54:28;27.30;89.00
2571;DHT22;1295;51.130;6.732;2022-08-11T01:56:57;27.20;89.10
2571;DHT22;1295;51.130;6.732;2022-08-11T01:59:24;27.20;89.20
2571;DHT22;1295;51.130;6.732;2022-08-11T02:02:17;27.20;89.30
2571;DHT22;1295;51.130;6.732;2022-08-11T02:04:40;27.10;89.30
2571;DHT22;1295;51.130;6.732;2022-08-11T02:07:12;27.10;89.40
2571;DHT22;1295;51.130;6.732;2022-08-11T02:09:46;27.10;89.50
2571;DHT22;1295;51.130;6.732;2022-08-11T02:12:15;27.00;89.70
2571;DHT22;1295;51.130;6.732;2022-08-11T02:14:42;27.00;89.70
2571;DHT22;1295;51.130;6.732;2022-08-11T02:17:16;27.00;89.70
2571;DHT22;1295;51.130;6.732;2022-08-11T02:20:06;27.00;89.90
2571;DHT22;1295;51.130;6.732;2022-08-11T02:22:45;27.00;89.80
2571;DHT22;1295;51.130;6.732;2022-08-11T02:26:24;26.90;89.90
2571;DHT22;1295;51.130;6.732;2022-08-11T02:28:06;26.90;90.00
2571;DHT22;1295;51.130;6.732;2022-08-11T02:30:26;26.90;90.00
2571;DHT22;1295;51.130;6.732;2022-08-11T02:33:11;26.90;90.00
2571;DHT22;1295;51.130;6.732;2022-08-11T02:36:05;26.90;90.10
2571;DHT22;1295;51.130;6.732;2022-08-11T02:38:34;26.90;90.20
2571;DHT22;1295;51.130;6.732;2022-08-11T02:41:20;26.80;90.20
2571;DHT22;1295;51.130;6.732;2022-08-11T02:43:51;26.80;90.20
2571;DHT22;1295;51.130;6.732;2022-08-11T02:46:17;26.80;90.20
2571;DHT22;1295;51.130;6.732;2022-08-11T02:48:58;26.80;90.20
2571;DHT22;1295;51.130;6.732;2022-08-11T02:51:38;26.70;90.30
2571;DHT22;1295;51.130;6.732;2022-08-11T02:54:06;26.70;90.30
2571;DHT22;1295;51.130;6.732;2022-08-11T02:56:51;26.70;90.40
2571;DHT22;1295;51.130;6.732;2022-08-11T02:59:52;26.70;90.40
2571;DHT22;1295;51.130;6.732;2022-08-11T03:02:13;26.60;90.40
2571;DHT22;1295;51.130;6.732;2022-08-11T03:05:17;26.60;90.40
2571;DHT22;1295;51.130;6.732;2022-08-11T03:07:28;26.60;90.40
2571;DHT22;1295;51.130;6.732;2022-08-11T03:09:54;26.60;90.40
2571;DHT22;1295;51.130;6.732;2022-08-11T03:12:23;26.50;90.40
2571;DHT22;1295;51.130;6.732;2022-08-11T03:14:53;26.50;90.40
2571;DHT22;1295;51.130;6.732;2022-08-11T03:17:28;26.50;90.40
2571;DHT22;1295;51.130;6.732;2022-08-11T03:20:21;26.50;90.40
2571;DHT22;1295;51.130;6.732;2022-08-11T03:23:06;26.40;90.40
2571;DHT22;1295;51.130;6.732;2022-08-11T03:28:23;26.40;90.40
2571;DHT22;1295;51.130;6.732;2022-08-11T03:30:51;26.40;90.40
2571;DHT22;1295;51.130;6.732;2022-08-11T03:33:18;26.40;90.50
2571;DHT22;1295;51.130;6.732;2022-08-11T03:36:02;26.40;90.50
2571;DHT22;1295;51.130;6.732;2022-08-11T03:38:23;26.30;90.50
2571;DHT22;1295;51.130;6.732;2022-08-11T03:41:03;26.30;90.50
2571;DHT22;1295;51.130;6.732;2022-08-11T03:46:15;26.30;90.60
2571;DHT22;1295;51.130;6.732;2022-08-11T03:48:48;25.90;90.90
2571;DHT22;1295;51.130;6.732;2022-08-11T03:51:18;26.10;90.70
2571;DHT22;1295;51.130;6.732;2022-08-11T03:53:48;26.10;90.60
2571;DHT22;1295;51.130;6.732;2022-08-11T03:56:21;26.10;90.60
2571;DHT22;1295;51.130;6.732;2022-08-11T03:59:13;26.10;90.60
2571;DHT22;1295;51.130;6.732;2022-08-11T04:04:57;26.10;90.60
2571;DHT22;1295;51.130;6.732;2022-08-11T04:07:45;26.10;90.60
2571;DHT22;1295;51.130;6.732;2022-08-11T04:10:21;26.10;90.70
2571;DHT22;1295;51.130;6.732;2022-08-11T04:12:45;26.00;90.70
2571;DHT22;1295;51.130;6.732;2022-08-11T04:29:30;25.90;90.90
2571;DHT22;1295;51.130;6.732;2022-08-11T04:34:52;25.90;91.00
2571;DHT22;1295;51.130;6.732;2022-08-11T04:37:31;25.80;91.00
2571;DHT22;1295;51.130;6.732;2022-08-11T04:43:41;25.80;91.30
2571;DHT22;1295;51.130;6.732;2022-08-11T04:51:43;25.70;91.10
2571;DHT22;1295;51.130;6.732;2022-08-11T04:54:22;25.70;91.20
2571;DHT22;1295;51.130;6.732;2022-08-11T04:56:51;25.70;91.20
2571;DHT22;1295;51.130;6.732;2022-08-11T04:59:52;25.60;91.20
2571;DHT22;1295;51.130;6.732;2022-08-11T05:05:14;25.60;91.30
2571;DHT22;1295;51.130;6.732;2022-08-11T05:11:06;25.50;91.30
2571;DHT22;1295;51.130;6.732;2022-08-11T05:13:33;25.50;91.30
2571;DHT22;1295;51.130;6.732;2022-08-11T05:16:18;25.50;91.40
2571;DHT22;1295;51.130;6.732;2022-08-11T05:18:50;25.50;91.80
2571;DHT22;1295;51.130;6.732;2022-08-11T05:21:21;25.50;91.50
2571;DHT22;1295;51.130;6.732;2022-08-11T05:23:56;25.50;91.60
2571;DHT22;1295;51.130;6.732;2022-08-11T05:26:27;25.50;91.70
2571;DHT22;1295;51.130;6.732;2022-08-11T05:29:00;25.40;91.60
2571;DHT22;1295;51.130;6.732;2022-08-11T05:31:32;25.50;91.70
2571;DHT22;1295;51.130;6.732;2022-08-11T05:34:14;25.40;91.80
2571;DHT22;1295;51.130;6.732;2022-08-11T05:36:46;25.40;91.80
2571;DHT22;1295;51.130;6.732;2022-08-11T05:39:12;25.40;91.90
2571;DHT22;1295;51.130;6.732;2022-08-11T05:41:42;25.40;91.90
2571;DHT22;1295;51.130;6.732;2022-08-11T05:44:16;25.40;92.30
2571;DHT22;1295;51.130;6.732;2022-08-11T05:46:47;25.40;91.90
2571;DHT22;1295;51.130;6.732;2022-08-11T05:49:19;25.40;92.00
2571;DHT22;1295;51.130;6.732;2022-08-11T05:51:50;25.40;92.10
2571;DHT22;1295;51.130;6.732;2022-08-11T05:54:23;25.40;92.10
2571;DHT22;1295;51.130;6.732;2022-08-11T05:56:56;25.40;92.10
2571;DHT22;1295;51.130;6.732;2022-08-11T05:59:21;25.40;92.20
2571;DHT22;1295;51.130;6.732;2022-08-11T06:01:46;25.40;92.20
2571;DHT22;1295;51.130;6.732;2022-08-11T06:04:15;25.40;92.20
2571;DHT22;1295;51.130;6.732;2022-08-11T06:06:45;25.40;92.20
2571;DHT22;1295;51.130;6.732;2022-08-11T06:09:06;25.40;92.30
2571;DHT22;1295;51.130;6.732;2022-08-11T06:11:36;25.40;92.30
2571;DHT22;1295;51.130;6.732;2022-08-11T06:14:01;25.40;92.30
2571;DHT22;1295;51.130;6.732;2022-08-11T06:16:27;25.40;92.30
2571;DHT22;1295;51.130;6.732;2022-08-11T06:18:53;25.40;92.30
2571;DHT22;1295;51.130;6.732;2022-08-11T06:21:18;25.40;92.30
2571;DHT22;1295;51.130;6.732;2022-08-11T06:23:44;25.40;92.30
2571;DHT22;1295;51.130;6.732;2022-08-11T06:26:10;25.40;92.20
2571;DHT22;1295;51.130;6.732;2022-08-11T06:28:36;25.40;92.10
2571;DHT22;1295;51.130;6.732;2022-08-11T06:31:02;25.40;92.00
2571;DHT22;1295;51.130;6.732;2022-08-11T06:33:30;25.40;92.10
2571;DHT22;1295;51.130;6.732;2022-08-11T06:36:15;25.40;92.00
2571;DHT22;1295;51.130;6.732;2022-08-11T06:39:01;25.50;91.90
2571;DHT22;1295;51.130;6.732;2022-08-11T06:41:29;25.50;91.80
2571;DHT22;1295;51.130;6.732;2022-08-11T06:44:21;25.50;91.80
2571;DHT22;1295;51.130;6.732;2022-08-11T06:46:49;25.50;91.70
2571;DHT22;1295;51.130;6.732;2022-08-11T06:49:14;25.60;91.70
2571;DHT22;1295;51.130;6.732;2022-08-11T06:51:46;25.60;91.60
2571;DHT22;1295;51.130;6.732;2022-08-11T06:54:11;25.60;91.50
2571;DHT22;1295;51.130;6.732;2022-08-11T06:56:37;25.60;91.50
2571;DHT22;1295;51.130;6.732;2022-08-11T06:59:09;25.70;91.50
2571;DHT22;1295;51.130;6.732;2022-08-11T07:01:43;25.60;91.50
2571;DHT22;1295;51.130;6.732;2022-08-11T07:04:07;25.60;91.50
2571;DHT22;1295;51.130;6.732;2022-08-11T07:06:47;25.70;91.40
2571;DHT22;1295;51.130;6.732;2022-08-11T07:09:30;25.70;91.40
2571;DHT22;1295;51.130;6.732;2022-08-11T07:11:59;25.90;91.10
2571;DHT22;1295;51.130;6.732;2022-08-11T07:14:31;26.00;91.20
2571;DHT22;1295;51.130;6.732;2022-08-11T07:17:03;26.00;91.10
2571;DHT22;1295;51.130;6.732;2022-08-11T07:19:28;26.00;91.20
2571;DHT22;1295;51.130;6.732;2022-08-11T07:22:01;26.10;91.00
2571;DHT22;1295;51.130;6.732;2022-08-11T07:24:35;26.20;90.90
2571;DHT22;1295;51.130;6.732;2022-08-11T07:27:08;26.20;91.40
2571;DHT22;1295;51.130;6.732;2022-08-11T07:29:37;26.10;91.20
2571;DHT22;1295;51.130;6.732;2022-08-11T07:32:08;25.90;91.20
2571;DHT22;1295;51.130;6.732;2022-08-11T07:34:33;25.80;91.40
2571;DHT22;1295;51.130;6.732;2022-08-11T07:36:58;26.10;91.20
2571;DHT22;1295;51.130;6.732;2022-08-11T07:39:24;26.20;91.00
2571;DHT22;1295;51.130;6.732;2022-08-11T07:41:50;26.70;90.50
2571;DHT22;1295;51.130;6.732;2022-08-11T07:44:15;26.70;90.40
2571;DHT22;1295;51.130;6.732;2022-08-11T07:46:42;26.80;90.00
2571;DHT22;1295;51.130;6.732;2022-08-11T07:49:13;26.50;90.40
2571;DHT22;1295;51.130;6.732;2022-08-11T07:51:44;26.60;89.70
2571;DHT22;1295;51.130;6.732;2022-08-11T07:54:16;26.60;88.50
2571;DHT22;1295;51.130;6.732;2022-08-11T07:56:42;26.80;90.50
2571;DHT22;1295;51.130;6.732;2022-08-11T07:59:08;27.10;89.90
2571;DHT22;1295;51.130;6.732;2022-08-11T08:01:39;26.90;90.10
2571;DHT22;1295;51.130;6.732;2022-08-11T08:04:12;26.80;90.00
2571;DHT22;1295;51.130;6.732;2022-08-11T08:06:43;27.00;89.70
2571;DHT22;1295;51.130;6.732;2022-08-11T08:09:15;26.90;89.60
2571;DHT22;1295;51.130;6.732;2022-08-11T08:11:47;26.90;88.90
2571;DHT22;1295;51.130;6.732;2022-08-11T08:14:18;26.70;89.10
2571;DHT22;1295;51.130;6.732;2022-08-11T08:16:50;27.10;86.00
2571;DHT22;1295;51.130;6.732;2022-08-11T08:19:22;27.00;88.10
2571;DHT22;1295;51.130;6.732;2022-08-11T08:21:48;27.20;89.70
2571;DHT22;1295;51.130;6.732;2022-08-11T08:24:13;28.00;89.30
2571;DHT22;1295;51.130;6.732;2022-08-11T08:26:39;27.80;87.00
2571;DHT22;1295;51.130;6.732;2022-08-11T08:29:11;28.30;88.60
2571;DHT22;1295;51.130;6.732;2022-08-11T08:31:42;28.30;84.30
2571;DHT22;1295;51.130;6.732;2022-08-11T08:34:08;27.80;86.80
2571;DHT22;1295;51.130;6.732;2022-08-11T08:36:34;28.00;85.80
2571;DHT22;1295;51.130;6.732;2022-08-11T08:39:00;27.60;88.50
2571;DHT22;1295;51.130;6.732;2022-08-11T08:41:28;27.50;88.60
2571;DHT22;1295;51.130;6.732;2022-08-11T08:43:53;27.40;88.40
2571;DHT22;1295;51.130;6.732;2022-08-11T08:46:20;27.40;88.50
2571;DHT22;1295;51.130;6.732;2022-08-11T08:48:44;27.50;88.20
2571;DHT22;1295;51.130;6.732;2022-08-11T08:51:10;27.90;87.60
2571;DHT22;1295;51.130;6.732;2022-08-11T08:53:45;28.30;83.30
2571;DHT22;1295;51.130;6.732;2022-08-11T08:56:09;28.60;85.60
2571;DHT22;1295;51.130;6.732;2022-08-11T08:58:35;28.60;85.60
2571;DHT22;1295;51.130;6.732;2022-08-11T09:01:00;28.30;87.10
2571;DHT22;1295;51.130;6.732;2022-08-11T09:03:26;27.90;87.40
2571;DHT22;1295;51.130;6.732;2022-08-11T09:05:52;28.70;83.90
2571;DHT22;1295;51.130;6.732;2022-08-11T09:08:17;28.40;83.70
2571;DHT22;1295;51.130;6.732;2022-08-11T09:10:45;28.20;85.60
2571;DHT22;1295;51.130;6.732;2022-08-11T09:13:10;28.20;85.60
2571;DHT22;1295;51.130;6.732;2022-08-11T09:15:36;28.60;84.80
2571;DHT22;1295;51.130;6.732;2022-08-11T09:18:02;27.70;87.40
2571;DHT22;1295;51.130;6.732;2022-08-11T09:20:29;28.00;86.00
2571;DHT22;1295;51.130;6.732;2022-08-11T09:22:55;28.50;84.50
2571;DHT22;1295;51.130;6.732;2022-08-11T09:25:27;28.50;84.50
2571;DHT22;1295;51.130;6.732;2022-08-11T09:27:58;28.00;88.60
2571;DHT22;1295;51.130;6.732;2022-08-11T09:30:24;27.90;86.70
2571;DHT22;1295;51.130;6.732;2022-08-11T09:32:51;28.70;85.10
2571;DHT22;1295;51.130;6.732;2022-08-11T09:35:15;28.10;86.10
2571;DHT22;1295;51.130;6.732;2022-08-11T09:37:41;28.00;86.00
2571;DHT22;1295;51.130;6.732;2022-08-11T09:40:14;28.70;84.20
2571;DHT22;1295;51.130;6.732;2022-08-11T09:42:45;28.70;84.30
2571;DHT22;1295;51.130;6.732;2022-08-11T09:45:17;28.80;80.90
2571;DHT22;1295;51.130;6.732;2022-08-11T09:47:43;28.90;83.70
2571;DHT22;1295;51.130;6.732;2022-08-11T09:50:09;28.80;80.70
2571;DHT22;1295;51.130;6.732;2022-08-11T09:52:36;28.80;81.40
2571;DHT22;1295;51.130;6.732;2022-08-11T09:55:00;30.00;79.40
2571;DHT22;1295;51.130;6.732;2022-08-11T09:57:26;29.60;82.60
2571;DHT22;1295;51.130;6.732;2022-08-11T09:59:58;29.60;83.20
2571;DHT22;1295;51.130;6.732;2022-08-11T10:02:24;29.30;83.00
2571;DHT22;1295;51.130;6.732;2022-08-11T10:04:49;29.20;82.20
2571;DHT22;1295;51.130;6.732;2022-08-11T10:07:15;29.30;81.90
2571;DHT22;1295;51.130;6.732;2022-08-11T10:09:58;29.60;82.60
2571;DHT22;1295;51.130;6.732;2022-08-11T10:12:26;29.60;83.30
2571;DHT22;1295;51.130;6.732;2022-08-11T10:14:53;29.50;80.30
2571;DHT22;1295;51.130;6.732;2022-08-11T10:17:23;30.00;79.80
2571;DHT22;1295;51.130;6.732;2022-08-11T10:19:49;29.80;80.70
2571;DHT22;1295;51.130;6.732;2022-08-11T10:22:15;29.70;76.00
2571;DHT22;1295;51.130;6.732;2022-08-11T10:24:47;29.50;82.60
2571;DHT22;1295;51.130;6.732;2022-08-11T10:27:18;29.80;81.30
2571;DHT22;1295;51.130;6.732;2022-08-11T10:29:44;29.70;78.80
2571;DHT22;1295;51.130;6.732;2022-08-11T10:32:21;29.50;81.30
2571;DHT22;1295;51.130;6.732;2022-08-11T10:34:53;29.80;83.30
2571;DHT22;1295;51.130;6.732;2022-08-11T10:37:19;29.70;83.30
2571;DHT22;1295;51.130;6.732;2022-08-11T10:39:44;29.00;82.70
2571;DHT22;1295;51.130;6.732;2022-08-11T10:42:10;28.60;83.90
2571;DHT22;1295;51.130;6.732;2022-08-11T10:44:43;28.60;83.90
2571;DHT22;1295;51.130;6.732;2022-08-11T10:47:09;29.20;82.00
2571;DHT22;1295;51.130;6.732;2022-08-11T10:49:40;29.60;80.40
2571;DHT22;1295;51.130;6.732;2022-08-11T10:52:11;30.20;79.00
2571;DHT22;1295;51.130;6.732;2022-08-11T10:54:43;30.20;79.00
2571;DHT22;1295;51.130;6.732;2022-08-11T10:57:15;29.20;80.80
2571;DHT22;1295;51.130;6.732;2022-08-11T10:59:46;30.00;73.80
2571;DHT22;1295;51.130;6.732;2022-08-11T11:02:12;30.20;73.20
2571;DHT22;1295;51.130;6.732;2022-08-11T11:04:57;30.50;76.30
2571;DHT22;1295;51.130;6.732;2022-08-11T11:07:22;30.50;77.70
2571;DHT22;1295;51.130;6.732;2022-08-11T11:09:50;29.90;72.20
2571;DHT22;1295;51.130;6.732;2022-08-11T11:12:18;30.10;78.70
2571;DHT22;1295;51.130;6.732;2022-08-11T11:14:49;30.00;79.10
2571;DHT22;1295;51.130;6.732;2022-08-11T11:17:25;29.50;80.80
2571;DHT22;1295;51.130;6.732;2022-08-11T11:19:58;29.70;80.20
2571;DHT22;1295;51.130;6.732;2022-08-11T11:22:26;30.40;73.30
2571;DHT22;1295;51.130;6.732;2022-08-11T11:25:51;30.40;73.30
2571;DHT22;1295;51.130;6.732;2022-08-11T11:28:09;30.60;75.90
2571;DHT22;1295;51.130;6.732;2022-08-11T11:30:32;29.90;78.50
2571;DHT22;1295;51.130;6.732;2022-08-11T11:33:10;29.90;79.50
2571;DHT22;1295;51.130;6.732;2022-08-11T11:35:37;30.20;78.50
2571;DHT22;1295;51.130;6.732;2022-08-11T11:38:00;30.20;79.40
2571;DHT22;1295;51.130;6.732;2022-08-11T11:40:26;30.10;75.00
2571;DHT22;1295;51.130;6.732;2022-08-11T11:42:52;30.00;75.50
2571;DHT22;1295;51.130;6.732;2022-08-11T11:45:18;30.00;77.90
2571;DHT22;1295;51.130;6.732;2022-08-11T11:47:43;29.80;77.60
2571;DHT22;1295;51.130;6.732;2022-08-11T11:50:09;30.20;77.70
2571;DHT22;1295;51.130;6.732;2022-08-11T11:52:35;30.00;78.00
2571;DHT22;1295;51.130;6.732;2022-08-11T11:55:00;30.20;80.90
2571;DHT22;1295;51.130;6.732;2022-08-11T11:57:26;30.20;77.40
2571;DHT22;1295;51.130;6.732;2022-08-11T11:59:58;30.10;78.10
2571;DHT22;1295;51.130;6.732;2022-08-11T12:02:45;29.80;79.00
2571;DHT22;1295;51.130;6.732;2022-08-11T12:05:10;29.30;80.20
2571;DHT22;1295;51.130;6.732;2022-08-11T12:07:36;29.60;80.60
2571;DHT22;1295;51.130;6.732;2022-08-11T12:10:09;30.70;76.40
2571;DHT22;1295;51.130;6.732;2022-08-11T12:12:34;30.60;76.40
2571;DHT22;1295;51.130;6.732;2022-08-11T12:15:07;30.40;80.80
2571;DHT22;1295;51.130;6.732;2022-08-11T12:17:33;30.40;80.50
2571;DHT22;1295;51.130;6.732;2022-08-11T12:20:00;30.40;75.70
2571;DHT22;1295;51.130;6.732;2022-08-11T12:22:25;30.40;75.60
2571;DHT22;1295;51.130;6.732;2022-08-11T12:24:57;30.80;77.30
2571;DHT22;1295;51.130;6.732;2022-08-11T12:27:30;30.80;73.30
2571;DHT22;1295;51.130;6.732;2022-08-11T12:30:00;30.80;73.10
2571;DHT22;1295;51.130;6.732;2022-08-11T12:32:26;30.70;76.50
2571;DHT22;1295;51.130;6.732;2022-08-11T12:34:50;30.70;75.60
2571;DHT22;1295;51.130;6.732;2022-08-11T12:37:19;30.90;75.10
2571;DHT22;1295;51.130;6.732;2022-08-11T12:39:43;30.80;75.20
2571;DHT22;1295;51.130;6.732;2022-08-11T12:42:16;30.30;76.90
2571;DHT22;1295;51.130;6.732;2022-08-11T12:44:47;30.30;76.80
2571;DHT22;1295;51.130;6.732;2022-08-11T12:47:19;30.40;74.90
2571;DHT22;1295;51.130;6.732;2022-08-11T12:49:47;30.10;76.90
2571;DHT22;1295;51.130;6.732;2022-08-11T12:52:20;30.10;76.30
2571;DHT22;1295;51.130;6.732;2022-08-11T12:57:37;30.00;77.10
2571;DHT22;1295;51.130;6.732;2022-08-11T13:00:08;29.80;78.10
2571;DHT22;1295;51.130;6.732;2022-08-11T13:02:41;30.00;78.00
2571;DHT22;1295;51.130;6.732;2022-08-11T13:05:13;30.00;77.20
2571;DHT22;1295;51.130;6.732;2022-08-11T13:07:41;30.30;76.70
2571;DHT22;1295;51.130;6.732;2022-08-11T13:10:07;30.60;73.10
2571;DHT22;1295;51.130;6.732;2022-08-11T13:12:33;30.20;81.00
2571;DHT22;1295;51.130;6.732;2022-08-11T13:15:05;30.70;74.60
2571;DHT22;1295;51.130;6.732;2022-08-11T13:17:32;30.80;74.80
2571;DHT22;1295;51.130;6.732;2022-08-11T13:19:58;30.70;74.70
2571;DHT22;1295;51.130;6.732;2022-08-11T13:22:24;30.80;75.40
2571;DHT22;1295;51.130;6.732;2022-08-11T13:24:50;30.40;76.50
2571;DHT22;1295;51.130;6.732;2022-08-11T13:27:17;30.80;75.80
2571;DHT22;1295;51.130;6.732;2022-08-11T13:29:42;30.60;75.00
2571;DHT22;1295;51.130;6.732;2022-08-11T13:32:09;30.70;74.90
2571;DHT22;1295;51.130;6.732;2022-08-11T13:34:34;30.70;74.90
2571;DHT22;1295;51.130;6.732;2022-08-11T13:37:01;31.30;74.90
2571;DHT22;1295;51.130;6.732;2022-08-11T13:39:27;30.90;75.00
2571;DHT22;1295;51.130;6.732;2022-08-11T13:41:53;31.00;76.70
2571;DHT22;1295;51.130;6.732;2022-08-11T13:44:19;31.00;77.00
2571;DHT22;1295;51.130;6.732;2022-08-11T13:46:44;30.40;76.10
2571;DHT22;1295;51.130;6.732;2022-08-11T13:49:11;30.80;70.20
2571;DHT22;1295;51.130;6.732;2022-08-11T13:51:41;30.80;70.70
2571;DHT22;1295;51.130;6.732;2022-08-11T13:54:08;30.30;76.30
2571;DHT22;1295;51.130;6.732;2022-08-11T13:56:35;30.20;76.50
2571;DHT22;1295;51.130;6.732;2022-08-11T13:59:00;30.20;76.80
2571;DHT22;1295;51.130;6.732;2022-08-11T14:01:28;30.60;76.00
2571;DHT22;1295;51.130;6.732;2022-08-11T14:03:52;30.60;75.90
2571;DHT22;1295;51.130;6.732;2022-08-11T14:06:18;30.30;77.60
2571;DHT22;1295;51.130;6.732;2022-08-11T14:08:44;30.30;73.70
2571;DHT22;1295;51.130;6.732;2022-08-11T14:11:09;31.20;73.90
2571;DHT22;1295;51.130;6.732;2022-08-11T14:13:42;30.90;72.80
2571;DHT22;1295;51.130;6.732;2022-08-11T14:16:41;30.90;72.90
2571;DHT22;1295;51.130;6.732;2022-08-11T14:18:51;30.80;75.80
2571;DHT22;1295;51.130;6.732;2022-08-11T14:21:15;31.10;75.00
2571;DHT22;1295;51.130;6.732;2022-08-11T14:23:48;31.20;71.70
2571;DHT22;1295;51.130;6.732;2022-08-11T14:26:14;31.20;71.60
2571;DHT22;1295;51.130;6.732;2022-08-11T14:28:45;30.90;74.50
2571;DHT22;1295;51.130;6.732;2022-08-11T14:31:12;30.90;74.90
2571;DHT22;1295;51.130;6.732;2022-08-11T14:33:42;31.00;72.10
2571;DHT22;1295;51.130;6.732;2022-08-11T14:36:07;31.20;75.50
2571;DHT22;1295;51.130;6.732;2022-08-11T14:38:33;31.00;74.30
2571;DHT22;1295;51.130;6.732;2022-08-11T14:40:58;30.40;75.70
2571;DHT22;1295;51.130;6.732;2022-08-11T14:43:30;30.30;75.20
2571;DHT22;1295;51.130;6.732;2022-08-11T14:46:02;30.80;75.10
2571;DHT22;1295;51.130;6.732;2022-08-11T14:48:34;30.70;74.70
2571;DHT22;1295;51.130;6.732;2022-08-11T14:50:59;30.80;72.20
2571;DHT22;1295;51.130;6.732;2022-08-11T14:53:25;30.50;76.00
2571;DHT22;1295;51.130;6.732;2022-08-11T14:55:52;31.00;74.30
2571;DHT22;1295;51.130;6.732;2022-08-11T14:58:24;31.00;74.30
2571;DHT22;1295;51.130;6.732;2022-08-11T15:00:53;30.70;75.20
2571;DHT22;1295;51.130;6.732;2022-08-11T15:03:18;30.60;75.30
2571;DHT22;1295;51.130;6.732;2022-08-11T15:05:46;30.50;74.90
2571;DHT22;1295;51.130;6.732;2022-08-11T15:08:12;30.60;75.30
2571;DHT22;1295;51.130;6.732;2022-08-11T15:10:37;31.10;74.90
2571;DHT22;1295;51.130;6.732;2022-08-11T15:13:03;31.10;74.20
2571;DHT22;1295;51.130;6.732;2022-08-11T15:15:29;31.00;73.60
2571;DHT22;1295;51.130;6.732;2022-08-11T15:18:02;30.90;71.50
2571;DHT22;1295;51.130;6.732;2022-08-11T15:20:27;31.00;71.60
2571;DHT22;1295;51.130;6.732;2022-08-11T15:22:59;30.80;74.60
2571;DHT22;1295;51.130;6.732;2022-08-11T15:25:31;31.50;74.00
2571;DHT22;1295;51.130;6.732;2022-08-11T15:27:57;30.80;74.70
2571;DHT22;1295;51.130;6.732;2022-08-11T15:30:29;30.80;74.60
2571;DHT22;1295;51.130;6.732;2022-08-11T15:33:02;30.70;74.70
2571;DHT22;1295;51.130;6.732;2022-08-11T15:35:32;31.40;70.40
2571;DHT22;1295;51.130;6.732;2022-08-11T15:38:04;31.40;69.70
2571;DHT22;1295;51.130;6.732;2022-08-11T15:40:31;31.00;72.40
2571;DHT22;1295;51.130;6.732;2022-08-11T15:43:05;30.80;74.40
2571;DHT22;1295;51.130;6.732;2022-08-11T15:45:35;30.70;75.20
2571;DHT22;1295;51.130;6.732;2022-08-11T15:48:07;30.80;74.90
2571;DHT22;1295;51.130;6.732;2022-08-11T15:50:33;30.90;74.10
2571;DHT22;1295;51.130;6.732;2022-08-11T15:52:59;30.90;74.50
2571;DHT22;1295;51.130;6.732;2022-08-11T15:55:24;30.80;74.70
2571;DHT22;1295;51.130;6.732;2022-08-11T15:57:50;30.80;74.50
2571;DHT22;1295;51.130;6.732;2022-08-11T16:00:22;30.80;74.40
2571;DHT22;1295;51.130;6.732;2022-08-11T16:02:54;30.90;74.90
2571;DHT22;1295;51.130;6.732;2022-08-11T16:05:26;30.90;75.00
2571;DHT22;1295;51.130;6.732;2022-08-11T16:07:52;30.80;75.20
2571;DHT22;1295;51.130;6.732;2022-08-11T16:10:18;30.80;73.70
2571;DHT22;1295;51.130;6.732;2022-08-11T16:12:46;30.80;75.00
2571;DHT22;1295;51.130;6.732;2022-08-11T16:15:16;30.90;75.10
2571;DHT22;1295;51.130;6.732;2022-08-11T16:17:51;30.80;75.40
2571;DHT22;1295;51.130;6.732;2022-08-11T16:20:16;30.90;75.00
2571;DHT22;1295;51.130;6.732;2022-08-11T16:22:40;30.80;74.80
2571;DHT22;1295;51.130;6.732;2022-08-11T16:25:08;30.80;75.10
2571;DHT22;1295;51.130;6.732;2022-08-11T16:27:36;31.00;74.60
2571;DHT22;1295;51.130;6.732;2022-08-11T16:30:02;31.00;74.90
2571;DHT22;1295;51.130;6.732;2022-08-11T16:32:28;31.00;74.90
2571;DHT22;1295;51.130;6.732;2022-08-11T16:34:57;30.90;74.90
2571;DHT22;1295;51.130;6.732;2022-08-11T16:37:26;30.80;75.40
2571;DHT22;1295;51.130;6.732;2022-08-11T16:39:58;30.70;75.40
2571;DHT22;1295;51.130;6.732;2022-08-11T16:42:24;30.70;74.90
2571;DHT22;1295;51.130;6.732;2022-08-11T16:44:56;30.80;74.80
2571;DHT22;1295;51.130;6.732;2022-08-11T16:47:37;30.80;74.00
2571;DHT22;1295;51.130;6.732;2022-08-11T16:50:04;30.80;74.00
2571;DHT22;1295;51.130;6.732;2022-08-11T16:52:31;30.80;74.90
2571;DHT22;1295;51.130;6.732;2022-08-11T16:54:57;30.80;74.90
2571;DHT22;1295;51.130;6.732;2022-08-11T16:57:23;30.80;75.30
2571;DHT22;1295;51.130;6.732;2022-08-11T16:59:55;30.80;74.40
2571;DHT22;1295;51.130;6.732;2022-08-11T17:02:22;30.80;74.10
2571;DHT22;1295;51.130;6.732;2022-08-11T17:04:53;30.80;74.90
2571;DHT22;1295;51.130;6.732;2022-08-11T17:07:25;30.70;74.90
2571;DHT22;1295;51.130;6.732;2022-08-11T17:09:58;30.70;75.20
2571;DHT22;1295;51.130;6.732;2022-08-11T17:12:30;30.80;74.90
2571;DHT22;1295;51.130;6.732;2022-08-11T17:15:02;30.80;74.20
2571;DHT22;1295;51.130;6.732;2022-08-11T17:17:32;30.80;74.80
2571;DHT22;1295;51.130;6.732;2022-08-11T17:19:56;30.70;74.30
2571;DHT22;1295;51.130;6.732;2022-08-11T17:22:20;30.70;74.40
2571;DHT22;1295;51.130;6.732;2022-08-11T17:24:52;30.70;74.60